Flight Track Log - Related Links

Times and Time Zones

All times are in EDT time to prevent confusion due to time zone crossing. See the UAL5915 flight status page for this flight to view local times or setup timezone preferences in your user account.

Time Position Orientation Groundspeed Altitude Reporting Facility
EDT Latitude Longitude Course Direction KTS MPH feet Rate Location/Type
Tue 01:31:24 PM 36.1947 -95.9075 249° West 167 192 1,100  Level Kansas City Center
Tue 01:32:24 PM 36.1767 -95.9667 249° West 199 229 3,500 2,455 Climbing Kansas City Center
Tue 01:33:14 PM 36.1394 -95.9928 210° Southwest 213 245 5,600 2,411 Climbing Kansas City Center
Tue 01:34:16 PM 36.0986 -95.9422 135° Southeast 247 284 8,000 2,371 Climbing Kansas City Center
Tue 01:35:18 PM 36.0908 -95.8483 96° East 271 312 10,500 1,984 Climbing Kansas City Center
Tue 01:36:20 PM 36.0819 -95.7386 96° East 316 364 12,100 2,274 Climbing Kansas City Center
Tue 01:37:22 PM 36.0719 -95.6061 95° East 325 374 15,200 2,274 Climbing Kansas City Center
Tue 01:38:24 PM 36.0617 -95.4911 96° East 333 383 16,800 1,548 Climbing Kansas City Center
Tue 01:39:26 PM 36.0531 -95.3661 95° East 359 413 18,400 1,500 Climbing Kansas City Center
Tue 01:40:28 PM 36.0411 -95.2361 96° East 377 434 19,900 1,452 Climbing Kansas City Center
Tue 01:41:30 PM 36.0300 -95.1022 96° East 390 449 21,400 1,545 Climbing Kansas City Center
Tue 01:42:09 PM 36.0203 -94.9917 96° East 393 452 22,500 1,333 Climbing Memphis Center
Tue 01:43:09 PM 36.0236 -94.8483 88° East 400 460 23,600 1,150 Climbing Memphis Center
Tue 01:44:09 PM 36.0286 -94.7047 87° East 410 472 24,800 1,350 Climbing Memphis Center
Tue 01:45:09 PM 36.0336 -94.5639 87° East 415 478 26,300 1,400 Climbing Memphis Center
Tue 01:46:09 PM 36.0403 -94.4231 87° East 415 478 27,600 1,250 Climbing Memphis Center
Tue 01:47:09 PM 36.0447 -94.2794 88° East 415 478 28,800 1,150 Climbing Memphis Center
Tue 01:48:09 PM 36.0533 -94.1414 86° East 409 471 29,900 1,150 Climbing Memphis Center
Tue 01:49:09 PM 36.0575 -94.0003 88° East 409 471 31,100 2,550 Climbing Memphis Center
Tue 01:50:09 PM 36.0594 -93.8567 89° East 404 465 35,000 1,200 Climbing Memphis Center
Tue 01:51:09 PM 36.0697 -93.7106 85° East 409 471 33,500 -150 Descending Memphis Center
Tue 01:52:09 PM 36.0736 -93.5669 88° East 419 482 34,700 750 Climbing Memphis Center
Tue 01:53:09 PM 36.0794 -93.4183 87° East 419 482 35,000 150 Climbing Memphis Center
Tue 01:54:09 PM 36.0831 -93.2617 88° East 425 489 35,000  Level Memphis Center
Tue 01:55:09 PM 36.0889 -93.1053 87° East 449 517 35,000  Level Memphis Center
Tue 01:56:09 PM 36.1008 -92.9361 85° East 470 541 35,000  Level Memphis Center
Tue 01:57:09 PM 36.1061 -92.7769 88° East 470 541 35,000  Level Memphis Center
Tue 01:58:09 PM 36.1111 -92.6153 88° East 470 541 35,000  Level Memphis Center
Tue 01:59:09 PM 36.1139 -92.4536 89° East 470 541 35,000  Level Memphis Center
Tue 02:00:09 PM 36.1208 -92.2919 87° East 470 541 35,000  Level Memphis Center
Tue 02:01:09 PM 36.1231 -92.1300 89° East 470 541 35,000  Level Memphis Center
Tue 02:02:09 PM 36.1208 -91.9861 91° East 470 541 35,000  Level Memphis Center
Tue 02:03:09 PM 36.1231 -91.8242 89° East 470 541 35,000  Level Memphis Center
Tue 02:04:09 PM 36.1289 -91.6597 87° East 470 541 35,000  Level Memphis Center
Tue 02:05:09 PM 36.1347 -91.5006 87° East 470 541 35,000  Level Memphis Center
Tue 02:06:09 PM 36.1381 -91.3414 88° East 470 541 35,000  Level Memphis Center
Tue 02:07:09 PM 36.1414 -91.1794 88° East 470 541 35,000  Level Memphis Center
Tue 02:08:09 PM 36.1422 -91.0175 90° East 470 541 35,000  Level Memphis Center
Tue 02:09:09 PM 36.1450 -90.8556 89° East 465 535 35,000  Level Memphis Center
Tue 02:10:09 PM 36.1478 -90.6964 89° East 465 535 35,000  Level Memphis Center
Tue 02:11:09 PM 36.1503 -90.5369 89° East 465 535 35,000  Level Memphis Center
Tue 02:12:09 PM 36.1522 -90.3775 89° East 460 529 35,000  Level Memphis Center
Tue 02:13:09 PM 36.1544 -90.2208 89° East 460 529 35,000  Level Memphis Center
Tue 02:14:09 PM 36.1561 -90.0639 89° East 460 529 35,000  Level Memphis Center
Tue 02:15:09 PM 36.1556 -89.9044 90° East 460 529 35,000  Level Memphis Center
Tue 02:16:09 PM 36.1569 -89.7478 89° East 460 529 35,000  Level Memphis Center
Tue 02:17:09 PM 36.1561 -89.5858 90° East 460 529 35,000  Level Memphis Center
Tue 02:18:09 PM 36.1569 -89.4033 90° East 460 529 35,000  Level Memphis Center
Tue 02:19:09 PM 36.1556 -89.2389 91° East 472 543 35,000  Level Memphis Center
Tue 02:20:09 PM 36.1583 -89.0767 89° East 477 549 35,000  Level Memphis Center
Tue 02:21:09 PM 36.1606 -88.9122 89° East 472 543 35,000  Level Memphis Center
Tue 02:22:09 PM 36.1608 -88.7553 90° East 472 543 35,000  Level Memphis Center
Tue 02:23:09 PM 36.1606 -88.5961 90° East 472 543 35,000  Level Memphis Center
Tue 02:24:09 PM 36.1625 -88.4392 89° East 467 537 35,000  Level Memphis Center
Tue 02:25:09 PM 36.1600 -88.2797 91° East 457 526 35,000  Level Memphis Center
Tue 02:26:09 PM 36.1619 -88.1539 89° East 457 526 35,000  Level Memphis Center
Tue 02:27:09 PM 36.1900 -87.9883 78° East 457 526 35,000  Level Memphis Center
Tue 02:28:09 PM 36.2494 -87.8297 65° Northeast 460 529 35,000  Level Memphis Center
Tue 02:29:09 PM 36.3069 -87.6839 64° Northeast 460 529 35,000  Level Memphis Center
Tue 02:30:09 PM 36.3619 -87.5350 65° Northeast 468 539 35,000  Level Memphis Center
Tue 02:31:09 PM 36.4189 -87.3886 64° Northeast 468 539 35,000  Level Memphis Center
Tue 02:32:09 PM 36.4736 -87.2394 65° Northeast 468 539 35,000  Level Memphis Center
Tue 02:33:09 PM 36.5303 -87.0928 64° Northeast 468 539 35,000  Level Memphis Center
Tue 02:34:09 PM 36.5789 -86.9564 66° East 468 539 35,000  Level Memphis Center
Tue 02:35:09 PM 36.6353 -86.8092 64° Northeast 468 539 35,000  Level Memphis Center
Tue 02:36:09 PM 36.6892 -86.6594 66° East 468 539 35,000  Level Memphis Center
Tue 02:37:09 PM 36.7431 -86.5094 66° East 468 539 35,000  Level Memphis Center
Tue 02:38:09 PM 36.8025 -86.3483 65° Northeast 468 539 35,000  Level Memphis Center
Tue 02:40:16 PM 36.9089 -86.0564 65° Northeast 472 543 35,000  Level Indianapolis Center
Tue 02:41:18 PM 36.9717 -85.8800 66° East 471 542 35,000  Level Indianapolis Center
Tue 02:42:20 PM 37.0261 -85.7292 66° East 471 542 35,000  Level Indianapolis Center
Tue 02:43:22 PM 37.0800 -85.5783 66° East 470 541 35,000  Level Indianapolis Center
Tue 02:44:24 PM 37.1319 -85.4297 66° East 468 539 35,000  Level Indianapolis Center
Tue 02:45:25 PM 37.1872 -85.2794 65° Northeast 470 541 35,000  Level Indianapolis Center
Tue 02:46:27 PM 37.2394 -85.1275 67° East 473 544 35,000  Level Indianapolis Center
Tue 02:47:29 PM 37.2989 -84.9533 67° East 468 539 35,000  Level Indianapolis Center
Tue 02:48:31 PM 37.3517 -84.8025 66° East 470 541 35,000  Level Indianapolis Center
Tue 02:49:33 PM 37.4033 -84.6519 67° East 468 539 35,000  Level Indianapolis Center
Tue 02:50:34 PM 37.4550 -84.5017 67° East 468 539 35,000  Level Indianapolis Center
Tue 02:51:36 PM 37.5156 -84.3586 62° Northeast 466 536 35,000  Level Indianapolis Center
Tue 02:52:38 PM 37.6072 -84.2394 46° Northeast 474 545 35,000  Level Indianapolis Center
Tue 02:53:40 PM 37.6964 -84.1217 46° Northeast 466 536 35,000  Level Indianapolis Center
Tue 02:54:41 PM 37.8222 -84.0178 33° Northeast 470 541 35,000  Level Indianapolis Center
Tue 02:55:43 PM 37.9361 -83.9461 26° Northeast 460 529 35,000  Level Indianapolis Center
Tue 02:56:45 PM 38.0517 -83.8739 26° Northeast 461 531 35,000  Level Indianapolis Center
Tue 02:57:47 PM 38.1678 -83.7997 27° Northeast 467 537 35,000  Level Indianapolis Center
Tue 02:58:49 PM 38.2814 -83.7278 26° Northeast 458 527 35,000  Level Indianapolis Center
Tue 02:59:51 PM 38.3958 -83.6567 26° Northeast 455 524 35,000  Level Indianapolis Center
Tue 03:00:53 PM 38.5000 -83.5694 33° Northeast 456 525 35,000  Level Indianapolis Center
Tue 03:01:55 PM 38.4994 -83.3797 90° East 467 537 35,000  Level Indianapolis Center
Tue 03:02:57 PM 38.4842 -83.2169 97° East 462 532 35,000  Level Indianapolis Center
Tue 03:03:59 PM 38.4703 -83.0531 96° East 463 533 35,000  Level Indianapolis Center
Tue 03:05:01 PM 38.4558 -82.8975 97° East 448 516 35,000  Level Indianapolis Center
Tue 03:06:03 PM 38.4422 -82.7414 96° East 444 511 35,000  Level Indianapolis Center
Tue 03:07:05 PM 38.4269 -82.5792 97° East 451 519 35,000  Level Indianapolis Center
Tue 03:08:07 PM 38.4106 -82.4081 97° East 457 526 35,000  Level Indianapolis Center
Tue 03:09:09 PM 38.3967 -82.2506 96° East 452 520 35,000  Level Indianapolis Center
Tue 03:10:11 PM 38.3808 -82.0931 97° East 450 518 35,000  Level Indianapolis Center
Tue 03:11:13 PM 38.3639 -81.9064 97° East 446 513 35,000  Level Indianapolis Center
Tue 03:12:15 PM 38.3019 -81.7739 121° Southeast 450 518 35,000  Level Indianapolis Center
Tue 03:13:17 PM 38.2147 -81.6586 134° Southeast 456 525 35,000  Level Indianapolis Center
Tue 03:14:19 PM 38.1592 -81.5189 117° Southeast 463 533 35,000 -97 Level Indianapolis Center
Tue 03:15:21 PM 38.1772 -81.3642 82° East 457 526 34,800 -677 Descending Indianapolis Center
Tue 03:16:23 PM 38.2194 -81.1836 73° East 449 517 33,600 -871 Descending Indianapolis Center
Tue 03:17:25 PM 38.2542 -81.0339 74° East 447 514 33,000 -290 Descending Indianapolis Center
Tue 03:18:27 PM 38.2856 -80.8811 75° East 449 517 33,000 -194 Level Indianapolis Center
Tue 03:19:29 PM 38.3117 -80.7228 78° East 457 526 32,600 -1,355 Descending Indianapolis Center
Tue 03:20:31 PM 38.3394 -80.5647 77° East 459 528 30,200 -1,839 Descending Indianapolis Center
Tue 03:21:33 PM 38.3650 -80.4014 79° East 449 517 28,800 -1,228 Descending Indianapolis Center
Tue 03:22:38 PM 38.3967 -80.2228 77° East 447 514 27,600 -1,008 Descending Washington Center
Tue 03:23:38 PM 38.4236 -80.0653 78° East 447 514 26,700 -942 Descending Washington Center
Tue 03:24:39 PM 38.4503 -79.9078 78° East 447 514 25,700 -992 Descending Washington Center
Tue 03:25:39 PM 38.4739 -79.7661 78° East 447 514 24,700 -857 Descending Washington Center
Tue 03:26:38 PM 38.4983 -79.6056 79° East 447 514 24,000 -350 Descending Washington Center
Tue 03:27:39 PM 38.5242 -79.4478 78° East 447 514 24,000  Level Washington Center
Tue 03:28:37 PM 38.5475 -79.3056 78° East 435 501 24,000 -712 Level Washington Center
Tue 03:29:37 PM 38.5750 -79.1503 77° East 416 479 22,600 -1,587 Descending Washington Center
Tue 03:30:38 PM 38.5958 -79.0131 79° East 404 465 20,800 -1,884 Descending Washington Center
Tue 03:31:38 PM 38.6183 -78.8786 78° East 391 450 18,800 -1,884 Descending Washington Center
Tue 03:32:39 PM 38.6447 -78.7494 75° East 381 438 17,000 -2,083 Descending Washington Center
Tue 03:33:39 PM 38.6728 -78.6311 73° East 363 418 14,600 -2,400 Descending Washington Center
Tue 03:34:39 PM 38.7008 -78.5125 73° East 349 402 12,200 -1,815 Descending Washington Center
Tue 03:35:38 PM 38.7242 -78.4044 74° East 332 382 11,000 -1,150 Descending Washington Center
Tue 03:36:39 PM 38.7697 -78.3236 54° Northeast 295 339 9,900 -1,059 Descending Washington Center
Tue 03:37:37 PM 38.8372 -78.2967 17° North 247 284 8,900 -958 Descending Washington Center
Tue 03:38:38 PM 38.8958 -78.2828 10° North 232 267 8,000 -934 Descending Washington Center
Tue 03:39:39 PM 38.9569 -78.2531 21° North 232 267 7,000 -942 Descending Washington Center
Tue 03:40:39 PM 38.9589 -78.1678 88° East 193 222 6,100 -508 Descending Washington Center
Tue 03:41:37 PM 38.9583 -78.0903 91° East 198 228 6,000 -50 Descending Washington Center
Tue 03:42:38 PM 38.9600 -78.0050 89° East 217 250 6,000  Level Washington Center
Tue 03:43:38 PM 38.9617 -77.9250 88° East 223 257 6,000  Level Washington Center
Tue 03:45:16 PM 38.9667 -77.7833 87° East 220 253 6,000  Level Potomac TRACON
Tue 03:46:16 PM 38.9667 -77.7000 90° East 216 249 6,000  Level Potomac TRACON
Tue 03:47:16 PM 38.9667 -77.6333 90° East 223 257 6,000  Level Potomac TRACON
Tue 03:48:16 PM 39.0167 -77.5833 38° Northeast 232 267 6,000  Level Potomac TRACON
Tue 03:49:16 PM 39.0667 -77.5667 15° North 233 268 6,000  Level Potomac TRACON
Tue 03:50:11 PM 39.1333 -77.5667 360° North 237 273 6,000  Level Potomac TRACON
Tue 03:51:17 PM 39.2000 -77.5833 349° North 235 270 6,000  Level Potomac TRACON
Tue 03:52:17 PM 39.2667 -77.5833 360° North 234 269 6,000  Level Potomac TRACON
Tue 03:53:17 PM 39.3000 -77.5333 49° Northeast 231 266 6,000  Level Potomac TRACON
Tue 03:54:12 PM 39.3000 -77.4667 90° East 203 234 6,000 -209 Level Potomac TRACON
Tue 03:55:12 PM 39.2500 -77.4500 166° South 186 214 5,600 -500 Descending Potomac TRACON
Tue 03:56:12 PM 39.2000 -77.4500 180° South 188 216 5,000 -850 Descending Potomac TRACON
Tue 03:57:12 PM 39.1500 -77.4500 180° South 183 211 3,900 -1,100 Descending Potomac TRACON

Login

Don't have an account? Register now (free) for customized features, flight alerts, and more!